Stations météo

réclame
Mon MeteoGroup
Ecija, Espagne (8395): Température de l'air & dewpoint: 10.08.2018 03:00:00 - 16.08.2018 03:00:00 (CEST)Ecija, Espagne (8395): Vitesse du vent & gusts: 10.08.2018 03:00:00 - 16.08.2018 03:00:00 (CEST)Ecija, Espagne (8395): Direction du vent: 10.08.2018 03:00:00 - 16.08.2018 03:00:00 (CEST)Ecija, Espagne (8395): reduced air pressure: 10.08.2018 03:00:00 - 16.08.2018 03:00:00 (CEST)Ecija, Espagne (8395): Quantités de précipitations: 10.08.2018 03:00:00 - 16.08.2018 03:00:00 (CEST)
Date & Time tt [°C] td [°C] ff [km/h] ff [knt] fx [km/h] fx [knt] dd ppp [hPa] rr [mm]
16.08.2018 03:00:00 20,5 17,5 14 8 26 14 W 1016,7 0,0
16.08.2018 02:00:00 21,3 17,3 4 2 19 10 W 1016,5 -
16.08.2018 01:00:00 22,0 17,5 15 8 26 14 WSW 1016,3 0,0
16.08.2018 00:00:00 23,1 17,8 13 7 22 12 W 1016,1 0,0
15.08.2018 23:00:00 24,5 18,2 13 7 32 17 WSW 1015,8 0,0
15.08.2018 22:00:00 26,2 18,6 16 9 32 17 W 1014,8 0,0
15.08.2018 21:00:00 28,7 19,1 18 10 31 17 W 1014,1 0,0
15.08.2018 20:00:00 31,9 19,8 15 8 25 14 W 1013,2 -
15.08.2018 19:00:00 33,2 19,6 15 8 28 15 WNW 1013,1 0,0
15.08.2018 18:00:00 33,6 20,1 12 7 31 17 WSW 1013,5 0,0
15.08.2018 17:00:00 33,7 20,1 10 6 26 14 WSW 1013,9 0,0
15.08.2018 16:00:00 32,9 19,4 11 6 21 11 SW 1014,6 0,0
15.08.2018 15:00:00 32,5 18,3 5 3 22 12 WSW 1015,4 0,0
15.08.2018 14:00:00 30,3 18,4 7 4 21 11 W 1016,1 -
15.08.2018 13:00:00 28,5 19,7 5 3 18 10 W 1016,8 0,0
15.08.2018 12:00:00 26,6 19,7 6 3 17 9 W 1017,2 0,0
15.08.2018 11:00:00 24,4 19,3 6 3 16 9 NW 1017,4 0,0
15.08.2018 10:00:00 22,3 18,3 8 5 16 8 W 1017,3 0,0
15.08.2018 09:00:00 20,6 17,8 3 2 9 5 W 1017,2 0,0
15.08.2018 08:00:00 18,2 15,3 5 3 7 4 NNW 1017,0 -
15.08.2018 07:00:00 18,1 15,5 0 0 8 4 NW 1016,7 0,0
15.08.2018 06:00:00 18,9 16,3 6 3 10 5 SW 1016,4 0,0
15.08.2018 05:00:00 19,3 15,5 7 4 10 5 SSW 1016,0 0,0
15.08.2018 04:00:00 20,0 14,1 6 3 18 10 E 1016,3 0,0
15.08.2018 03:00:00 20,6 14,5 11 6 20 11 SSW 1016,5 0,0
15.08.2018 02:00:00 21,9 14,8 6 3 20 11 SW 1016,8 -
15.08.2018 01:00:00 23,5 14,5 13 7 29 16 W 1016,1 0,0
15.08.2018 00:00:00 25,0 14,4 18 10 33 18 WSW 1015,7 0,0
14.08.2018 23:00:00 26,4 14,5 20 11 31 17 WSW 1015,5 0,0
14.08.2018 22:00:00 28,6 15,5 18 10 28 15 WSW 1014,8 0,0
14.08.2018 21:00:00 30,9 16,5 13 7 28 15 W 1014,1 0,0
14.08.2018 20:00:00 34,1 18,2 15 8 29 15 WSW 1013,6 -
14.08.2018 19:00:00 35,0 18,5 14 8 26 14 WSW 1013,7 0,0
14.08.2018 18:00:00 34,9 18,9 11 6 29 16 W 1013,7 0,0
14.08.2018 17:00:00 35,1 19,8 12 6 29 16 WSW 1014,2 0,0
14.08.2018 16:00:00 34,3 19,6 9 5 24 13 W 1014,5 0,0
14.08.2018 15:00:00 33,2 18,5 9 5 24 13 W 1015,3 0,0
14.08.2018 14:00:00 32,0 19,6 4 2 16 8 WNW 1015,8 -
14.08.2018 13:00:00 30,4 19,8 5 3 14 8 WSW 1016,5 0,0
14.08.2018 12:00:00 28,3 19,3 4 2 14 7 SW 1017,0 0,0
14.08.2018 11:00:00 26,6 19,0 3 2 10 5 SW 1016,9 0,0
14.08.2018 10:00:00 23,8 17,3 4 2 8 4 ESE 1016,8 0,0
14.08.2018 09:00:00 21,0 15,5 3 1 5 3 S 1016,7 0,0
14.08.2018 08:00:00 17,9 13,4 1 1 5 3 SSE 1016,7 -
14.08.2018 07:00:00 17,8 12,8 3 2 4 2 SE 1016,1 0,0
14.08.2018 06:00:00 18,8 13,5 0 0 6 3 SE 1015,5 0,0
14.08.2018 05:00:00 19,6 13,6 3 1 5 3 ESE 1015,5 0,0
14.08.2018 04:00:00 - - 1 1 4 2 SSE - 0,0
14.08.2018 03:00:00 21,9 14,3 2 1 9 5 WNW 1015,4 0,0
14.08.2018 02:00:00 23,2 15,0 3 1 16 9 SW 1015,1 -
14.08.2018 01:00:00 23,7 15,2 2 1 24 13 SE 1014,8 0,0
14.08.2018 00:00:00 24,5 15,4 18 10 26 14 SW 1014,4 0,0
13.08.2018 23:00:00 26,2 15,9 15 8 29 16 SW 1014,0 0,0
13.08.2018 22:00:00 28,1 15,3 20 11 36 19 WSW 1012,7 0,0
13.08.2018 21:00:00 30,7 16,6 22 12 36 20 WSW 1012,1 0,0
13.08.2018 20:00:00 33,6 18,5 21 12 36 20 WSW 1011,4 -
13.08.2018 19:00:00 35,1 19,1 14 8 32 17 WSW 1011,4 0,0
13.08.2018 18:00:00 35,0 18,5 16 8 29 15 W 1011,9 0,0
13.08.2018 17:00:00 35,3 19,6 13 7 31 17 W 1012,3 0,0
13.08.2018 16:00:00 34,6 19,4 14 8 31 17 W 1012,9 0,0
13.08.2018 15:00:00 33,9 19,9 15 8 35 19 W 1013,5 0,0
13.08.2018 14:00:00 32,6 19,8 13 7 24 13 W 1014,1 -
13.08.2018 13:00:00 31,2 21,6 11 6 21 11 WSW 1014,8 0,0
13.08.2018 12:00:00 29,4 21,6 6 3 19 10 WSW 1015,4 0,0
13.08.2018 11:00:00 27,3 21,3 6 4 13 7 SW 1015,4 0,0
13.08.2018 10:00:00 25,0 21,1 6 3 11 6 SW 1015,5 0,0
13.08.2018 09:00:00 21,3 18,3 0 0 4 2 SSW 1015,4 0,0
13.08.2018 08:00:00 20,2 17,2 1 1 5 3 S 1014,8 -
13.08.2018 07:00:00 20,0 16,6 1 1 3 2 SSW 1014,5 0,0
13.08.2018 06:00:00 20,9 16,7 0 0 4 2 N 1014,2 0,0
13.08.2018 05:00:00 21,9 17,1 3 1 6 3 SE 1014,2 0,0
13.08.2018 04:00:00 23,1 17,5 1 1 11 6 SSW 1014,3 0,0
13.08.2018 03:00:00 23,8 18,7 9 5 15 8 SW 1014,5 0,0
13.08.2018 02:00:00 24,8 19,8 6 3 20 11 W 1014,7 -
13.08.2018 01:00:00 25,3 20,1 16 9 30 16 WSW 1014,6 0,0
13.08.2018 00:00:00 26,4 20,5 20 11 36 19 WSW 1014,3 0,0
12.08.2018 23:00:00 28,2 20,3 21 12 34 19 WSW 1013,8 0,0
12.08.2018 22:00:00 30,2 20,5 18 10 36 20 W 1012,8 0,0
12.08.2018 21:00:00 33,0 18,4 15 8 32 18 W 1011,9 0,0
12.08.2018 20:00:00 35,3 19,6 16 9 29 16 W 1011,6 -
12.08.2018 19:00:00 36,6 20,4 15 8 31 17 WSW 1011,8 0,0
12.08.2018 18:00:00 36,9 20,3 11 6 31 17 WSW 1011,9 0,0
12.08.2018 17:00:00 36,8 20,1 14 8 36 19 W 1012,4 0,0
12.08.2018 16:00:00 36,6 20,8 13 7 26 14 SW 1013,2 0,0
12.08.2018 15:00:00 35,8 21,3 11 6 29 16 SW 1013,8 0,0
12.08.2018 14:00:00 35,2 21,4 14 8 30 16 S 1014,7 -
12.08.2018 13:00:00 33,1 22,6 3 2 20 11 ESE 1015,4 0,0
12.08.2018 12:00:00 31,7 22,4 8 4 16 9 ESE 1016,0 0,0
12.08.2018 11:00:00 30,1 22,8 5 3 14 7 E 1016,2 0,0
12.08.2018 10:00:00 27,3 22,3 9 5 13 7 E 1016,4 0,0
12.08.2018 09:00:00 25,0 20,9 4 2 6 4 ESE 1016,6 0,0
12.08.2018 08:00:00 22,6 19,3 2 1 7 4 SSW 1016,4 -
12.08.2018 07:00:00 23,1 19,3 0 0 12 6 E 1015,9 0,0
12.08.2018 06:00:00 23,4 19,6 10 5 13 7 SSW 1016,0 0,0
12.08.2018 05:00:00 24,0 19,5 8 4 13 7 SW 1015,9 0,0
12.08.2018 04:00:00 24,5 18,5 8 4 15 8 SSW 1016,3 0,0
12.08.2018 03:00:00 25,8 18,5 11 6 19 10 SSW 1016,1 0,0
12.08.2018 02:00:00 27,4 18,4 10 5 13 7 S 1016,8 -
12.08.2018 01:00:00 27,9 18,8 10 5 18 10 SW 1016,7 0,0
12.08.2018 00:00:00 28,5 18,8 12 6 28 15 WSW 1016,4 0,0
11.08.2018 23:00:00 29,0 19,3 18 10 28 15 SSW 1016,3 0,0
11.08.2018 22:00:00 30,3 19,6 15 8 37 20 SSW 1015,7 0,0
11.08.2018 21:00:00 31,9 19,8 22 12 33 18 S 1014,8 0,0
11.08.2018 20:00:00 34,1 20,9 22 12 34 18 S 1014,4 -
11.08.2018 19:00:00 36,1 21,5 16 9 31 17 S 1014,2 0,0
11.08.2018 18:00:00 37,0 21,2 19 10 37 20 S 1014,4 0,0
11.08.2018 17:00:00 37,1 22,4 14 8 30 16 SSW 1014,7 0,0
11.08.2018 16:00:00 36,0 22,2 11 6 27 15 SSW 1015,7 0,0
11.08.2018 15:00:00 35,1 22,8 11 6 28 15 ESE 1016,5 0,0
11.08.2018 14:00:00 34,1 21,9 13 7 24 13 ESE 1017,5 -
11.08.2018 13:00:00 33,2 22,0 9 5 20 11 ESE 1018,2 0,0
11.08.2018 12:00:00 31,7 21,6 8 4 19 10 ESE 1019,0 0,0
11.08.2018 11:00:00 29,9 19,9 10 5 17 9 ESE 1019,2 0,0
11.08.2018 10:00:00 27,4 18,7 5 3 11 6 E 1019,5 0,0
11.08.2018 09:00:00 24,2 16,7 0 0 10 5 SE 1019,6 0,0
11.08.2018 08:00:00 21,7 14,8 6 4 13 7 SE 1019,2 -
11.08.2018 07:00:00 21,5 14,4 6 3 9 5 SSE 1018,6 0,0
11.08.2018 06:00:00 21,9 14,5 6 3 8 5 SSE 1018,5 0,0
11.08.2018 05:00:00 23,7 16,2 3 2 10 5 SW 1018,6 0,0
11.08.2018 04:00:00 24,0 14,7 1 1 13 7 SSW 1018,8 0,0
11.08.2018 03:00:00 25,0 14,4 8 4 16 9 WSW 1019,1 0,0
11.08.2018 02:00:00 26,3 14,7 12 6 34 19 SW 1019,4 -
11.08.2018 01:00:00 27,6 16,0 18 10 26 14 SW 1019,2 0,0
11.08.2018 00:00:00 28,0 16,0 14 8 28 15 SSW 1019,0 0,0
10.08.2018 23:00:00 28,6 16,2 16 9 28 15 SSW 1018,2 0,0
10.08.2018 22:00:00 29,9 16,6 19 10 27 15 SSW 1016,9 0,0
10.08.2018 21:00:00 32,6 17,2 16 8 22 12 SSW 1015,7 0,0
10.08.2018 20:00:00 35,1 18,6 13 7 27 15 S 1015,1 -
10.08.2018 19:00:00 36,0 19,4 15 8 27 15 SSW 1015,0 0,0
10.08.2018 18:00:00 35,6 19,1 19 10 31 17 S 1015,3 0,0
10.08.2018 17:00:00 36,1 19,6 17 9 30 16 SSW 1015,3 0,0
10.08.2018 16:00:00 35,6 18,7 9 5 21 12 SE 1015,7 0,0
10.08.2018 15:00:00 35,4 18,9 5 3 23 13 SW 1016,3 0,0
10.08.2018 14:00:00 34,3 17,9 5 3 16 9 SSE 1016,8 -
10.08.2018 13:00:00 32,4 18,2 8 4 18 10 E 1017,1 0,0
10.08.2018 12:00:00 29,5 17,7 9 5 16 9 E 1017,7 0,0
10.08.2018 11:00:00 26,3 17,4 4 2 11 6 ESE 1018,0 0,0
10.08.2018 10:00:00 23,6 15,3 3 2 6 3 E 1018,3 0,0
10.08.2018 09:00:00 20,2 14,3 4 2 7 4 SE 1018,5 0,0
10.08.2018 08:00:00 16,9 12,2 5 3 8 4 S 1018,5 -
10.08.2018 07:00:00 16,9 11,8 1 1 6 4 SSE 1017,9 0,0
10.08.2018 06:00:00 17,4 12,1 5 3 6 4 S 1017,5 0,0
10.08.2018 05:00:00 18,5 12,4 1 0 5 3 SSE 1017,4 0,0
10.08.2018 04:00:00 19,6 13,1 1 0 3 2 SE 1017,0 0,0
10.08.2018 03:00:00 20,6 13,3 0 0 5 3 NW 1017,1 0,0

tt = Température de l'air
td = dewpoint
ff = Vitesse du vent
fx = gusts
dd = Direction du vent
ppp = reduced air pressure
rr = Quantités de précipitations

stations d'obs. à proximité